createdAt,value
2019-01-05T00:00:12.839Z,8.64
2019-01-05T00:02:47.615Z,8.65
2019-01-05T00:05:22.409Z,8.67
2019-01-05T00:08:10.411Z,8.68
2019-01-05T00:10:42.470Z,8.69
2019-01-05T00:13:23.379Z,8.69
2019-01-05T00:15:55.406Z,8.69
2019-01-05T00:18:39.379Z,8.70
2019-01-05T00:21:19.635Z,8.71
2019-01-05T00:24:06.360Z,8.73
2019-01-05T00:26:44.191Z,8.74
2019-01-05T00:29:22.216Z,8.76
2019-01-05T00:32:37.204Z,8.77
2019-01-05T00:35:17.498Z,8.75
2019-01-05T00:37:49.515Z,8.77
2019-01-05T00:40:21.621Z,8.77
2019-01-05T00:42:56.313Z,8.77
2019-01-05T00:45:31.038Z,8.77
2019-01-05T00:48:18.059Z,8.78
2019-01-05T00:50:52.752Z,8.79
2019-01-05T00:53:33.958Z,8.80
2019-01-05T00:56:22.354Z,8.80
2019-01-05T00:58:57.064Z,8.81
2019-01-05T01:01:31.789Z,8.82
2019-01-05T01:04:03.874Z,8.84
2019-01-05T01:06:45.100Z,8.87
2019-01-05T01:09:17.288Z,8.88
2019-01-05T01:11:52.025Z,8.88
2019-01-05T01:14:33.203Z,8.89
2019-01-05T01:17:14.175Z,8.88
2019-01-05T01:20:02.504Z,8.88
2019-01-05T01:22:34.547Z,8.87
2019-01-05T01:25:09.661Z,8.88
2019-01-05T01:27:41.987Z,8.88
2019-01-05T01:30:22.869Z,8.88
2019-01-05T01:33:06.916Z,8.88
2019-01-05T01:35:38.951Z,8.88
2019-01-05T01:38:30.524Z,8.89
2019-01-05T01:41:22.569Z,8.89
2019-01-05T01:43:54.596Z,8.88
2019-01-05T01:46:38.799Z,8.89
2019-01-05T01:49:13.230Z,8.91
2019-01-05T01:51:45.241Z,8.91
2019-01-05T01:54:17.284Z,8.92
2019-01-05T01:56:50.915Z,8.93
2019-01-05T01:59:28.383Z,8.90
2019-01-05T02:02:18.029Z,8.89
2019-01-05T02:04:55.491Z,8.88
2019-01-05T02:07:30.812Z,8.86
2019-01-05T02:10:18.959Z,8.86
2019-01-05T02:12:58.516Z,8.85
2019-01-05T02:15:42.956Z,8.88
2019-01-05T02:18:32.897Z,8.88
2019-01-05T02:21:32.293Z,8.86
2019-01-05T02:24:23.142Z,8.82
2019-01-05T02:27:25.406Z,8.80
2019-01-05T02:30:27.784Z,8.81
2019-01-05T02:33:41.395Z,8.80
2019-01-05T02:36:52.253Z,8.78
2019-01-05T02:39:59.004Z,8.78
2019-01-05T02:43:11.864Z,8.80
2019-01-05T02:46:13.961Z,8.80
2019-01-05T02:49:40.861Z,8.79
2019-01-05T02:53:01.205Z,8.78
2019-01-05T02:55:49.910Z,8.74
2019-01-05T02:59:18.601Z,8.73
2019-01-05T03:02:23.644Z,8.72
2019-01-05T03:05:15.810Z,8.72
2019-01-05T03:08:28.348Z,8.73
2019-01-05T03:11:25.628Z,8.72
2019-01-05T03:15:09.243Z,8.73
2019-01-05T03:18:15.718Z,8.69
2019-01-05T03:21:04.307Z,8.68
2019-01-05T03:24:02.315Z,8.68
2019-01-05T03:27:26.937Z,8.69
2019-01-05T03:30:18.509Z,8.67
2019-01-05T03:33:03.962Z,8.68
2019-01-05T03:36:05.655Z,8.68
2019-01-05T03:38:54.402Z,8.70
2019-01-05T03:42:03.389Z,8.70
2019-01-05T03:45:14.682Z,8.69
2019-01-05T03:48:25.667Z,8.67
2019-01-05T03:51:52.228Z,8.66
2019-01-05T03:55:30.964Z,8.66
2019-01-05T03:58:49.581Z,8.69
2019-01-05T04:02:20.796Z,8.69
2019-01-05T04:05:55.750Z,8.69
2019-01-05T04:09:24.138Z,8.67
2019-01-05T04:12:27.861Z,8.67
2019-01-05T04:16:02.139Z,8.71
2019-01-05T04:19:22.567Z,8.70
2019-01-05T04:22:20.608Z,8.71
2019-01-05T04:25:36.125Z,8.75
2019-01-05T04:28:42.882Z,8.75
2019-01-05T04:31:43.147Z,8.76
2019-01-05T04:34:48.727Z,8.77
2019-01-05T04:37:40.097Z,8.78
2019-01-05T04:41:06.710Z,8.78
2019-01-05T04:44:05.867Z,8.76
2019-01-05T04:47:07.123Z,8.75
2019-01-05T04:50:04.494Z,8.73
2019-01-05T04:53:23.470Z,8.74
2019-01-05T04:56:35.213Z,8.72
2019-01-05T04:59:43.553Z,8.69
2019-01-05T05:02:53.727Z,8.68
2019-01-05T05:06:15.525Z,8.67
2019-01-05T05:09:41.920Z,8.67
2019-01-05T05:13:08.390Z,8.67
2019-01-05T05:16:05.963Z,8.66
2019-01-05T05:19:17.091Z,8.65
2019-01-05T05:22:08.491Z,8.65
2019-01-05T05:25:06.378Z,8.65
2019-01-05T05:28:17.725Z,8.66
2019-01-05T05:31:22.603Z,8.59
2019-01-05T05:34:50.994Z,8.50
2019-01-05T05:38:08.593Z,8.40
2019-01-05T05:41:32.794Z,8.35
2019-01-05T05:44:21.318Z,8.31
2019-01-05T05:47:10.682Z,8.30
2019-01-05T05:50:16.239Z,8.30
2019-01-05T05:53:33.401Z,8.30
2019-01-05T05:56:56.318Z,8.28
2019-01-05T06:00:16.914Z,8.27
2019-01-05T06:03:13.559Z,8.25
2019-01-05T06:06:40.613Z,8.24
2019-01-05T06:09:51.608Z,8.26
2019-01-05T06:13:00.341Z,8.26
2019-01-05T06:15:58.747Z,8.26
2019-01-05T06:19:20.758Z,8.26
2019-01-05T06:22:20.471Z,8.22
2019-01-05T06:25:27.379Z,8.22
2019-01-05T06:28:32.744Z,8.23
2019-01-05T06:31:57.434Z,8.28
2019-01-05T06:35:20.954Z,8.29
2019-01-05T06:38:12.500Z,8.31
2019-01-05T06:41:40.344Z,8.37
2019-01-05T06:45:02.228Z,8.37
2019-01-05T06:48:13.972Z,8.39
2019-01-05T06:51:45.148Z,8.39
2019-01-05T06:54:51.715Z,8.37
2019-01-05T06:58:05.816Z,8.36
2019-01-05T07:01:35.419Z,8.35
2019-01-05T07:04:55.830Z,8.34
2019-01-05T07:08:24.497Z,8.35
2019-01-05T07:11:35.806Z,8.32
2019-01-05T07:14:51.387Z,8.30
2019-01-05T07:18:02.813Z,8.31
2019-01-05T07:21:06.858Z,8.27
2019-01-05T07:24:33.822Z,8.25
2019-01-05T07:28:12.105Z,8.24
2019-01-05T07:31:24.843Z,8.22
2019-01-05T07:34:28.356Z,8.22
2019-01-05T07:37:45.377Z,8.23
2019-01-05T07:41:16.849Z,8.20
2019-01-05T07:44:36.069Z,8.16
2019-01-05T07:47:52.326Z,8.13
2019-01-05T07:51:05.199Z,8.12
2019-01-05T07:54:19.775Z,8.13
2019-01-05T07:57:41.742Z,8.13
2019-01-05T08:00:38.127Z,8.14
2019-01-05T08:03:35.828Z,8.14
2019-01-05T08:06:59.963Z,8.16
2019-01-05T08:09:48.796Z,8.16
2019-01-05T08:13:04.548Z,8.22
2019-01-05T08:16:11.431Z,8.25
2019-01-05T08:19:02.935Z,8.24
2019-01-05T08:21:57.322Z,8.23
2019-01-05T08:24:54.836Z,8.24
2019-01-05T08:27:57.075Z,8.23
2019-01-05T08:31:09.942Z,8.25
2019-01-05T08:34:13.307Z,8.27
2019-01-05T08:37:16.285Z,8.30
2019-01-05T08:40:35.490Z,8.35
2019-01-05T08:43:50.225Z,8.41
2019-01-05T08:47:07.954Z,8.43
2019-01-05T08:50:12.712Z,8.46
2019-01-05T08:53:04.690Z,8.46
2019-01-05T08:56:24.874Z,8.48
2019-01-05T08:59:25.428Z,8.51
2019-01-05T09:02:36.602Z,8.52
2019-01-05T09:05:32.553Z,8.54
2019-01-05T09:09:02.435Z,8.59
2019-01-05T09:12:27.908Z,8.61
2019-01-05T09:15:39.262Z,8.57
2019-01-05T09:19:23.494Z,8.55
2019-01-05T09:22:35.097Z,8.47
2019-01-05T09:25:54.200Z,8.41
2019-01-05T09:28:58.072Z,8.39
2019-01-05T09:32:18.776Z,8.38
2019-01-05T09:35:23.513Z,8.38
2019-01-05T09:38:30.172Z,8.38
2019-01-05T09:41:53.873Z,8.41
2019-01-05T09:45:09.901Z,8.42
2019-01-05T09:48:22.280Z,8.43
2019-01-05T09:51:51.165Z,8.42
2019-01-05T09:55:26.891Z,8.42
2019-01-05T09:58:35.464Z,8.43
2019-01-05T10:01:40.586Z,8.45
2019-01-05T10:04:53.480Z,8.45
2019-01-05T10:08:27.260Z,8.41
2019-01-05T10:11:26.577Z,8.41
2019-01-05T10:14:54.664Z,8.45
2019-01-05T10:17:43.456Z,8.41
2019-01-05T10:20:29.009Z,8.46
2019-01-05T10:23:37.254Z,8.50
2019-01-05T10:26:45.186Z,8.51
2019-01-05T10:30:00.944Z,8.54
2019-01-05T10:32:58.665Z,8.57
2019-01-05T10:36:07.756Z,8.63
2019-01-05T10:39:12.946Z,8.69
2019-01-05T10:42:35.448Z,8.75
2019-01-05T10:45:40.039Z,8.82
2019-01-05T10:48:51.661Z,8.89
2019-01-05T10:51:48.970Z,8.91
2019-01-05T10:54:52.302Z,8.90
2019-01-05T10:57:46.942Z,8.84
2019-01-05T11:00:58.616Z,8.73
2019-01-05T11:04:06.418Z,8.61
2019-01-05T11:07:22.980Z,8.57
2019-01-05T11:10:51.333Z,8.54
2019-01-05T11:14:03.480Z,8.54
2019-01-05T11:17:01.078Z,8.53
2019-01-05T11:20:39.466Z,8.57
2019-01-05T11:24:06.265Z,8.55
2019-01-05T11:27:17.679Z,8.52
2019-01-05T11:30:12.120Z,8.53
2019-01-05T11:33:44.343Z,8.62
2019-01-05T11:36:58.862Z,8.73
2019-01-05T11:40:01.618Z,8.80
2019-01-05T11:43:11.866Z,8.83
2019-01-05T11:46:03.779Z,8.85
2019-01-05T11:49:20.761Z,8.87
2019-01-05T11:52:34.928Z,8.88
2019-01-05T11:55:32.243Z,8.89
2019-01-05T11:58:37.151Z,8.88
2019-01-05T12:01:26.013Z,8.88
2019-01-05T12:04:17.793Z,8.87
2019-01-05T12:07:17.198Z,8.87
2019-01-05T12:10:14.814Z,8.85
2019-01-05T12:13:24.662Z,8.82
2019-01-05T12:16:44.038Z,8.75
2019-01-05T12:20:03.312Z,8.65
2019-01-05T12:23:00.594Z,8.59
2019-01-05T12:26:18.401Z,8.58
2019-01-05T12:29:07.176Z,8.53
2019-01-05T12:32:35.513Z,8.53
2019-01-05T12:36:05.125Z,8.53
2019-01-05T12:39:16.630Z,8.51
2019-01-05T12:42:26.960Z,8.50
2019-01-05T12:45:47.320Z,8.49
2019-01-05T12:49:02.962Z,8.49
2019-01-05T12:52:05.004Z,8.50
2019-01-05T12:55:23.117Z,8.47
2019-01-05T12:58:36.130Z,8.44
2019-01-05T13:01:50.721Z,8.39
2019-01-05T13:04:47.022Z,8.36
2019-01-05T13:08:10.237Z,8.34
2019-01-05T13:11:45.054Z,8.34
2019-01-05T13:14:38.418Z,8.32
2019-01-05T13:17:38.980Z,8.33
2019-01-05T13:20:52.460Z,8.33
2019-01-05T13:24:17.111Z,8.32
2019-01-05T13:27:41.953Z,8.32
2019-01-05T13:30:45.604Z,8.35
2019-01-05T13:34:04.195Z,8.33
2019-01-05T13:37:13.295Z,8.32
2019-01-05T13:40:30.505Z,8.33
2019-01-05T13:44:05.933Z,8.35
2019-01-05T13:47:20.852Z,8.30
2019-01-05T13:50:39.622Z,8.28
2019-01-05T13:53:28.646Z,8.29
2019-01-05T13:56:21.525Z,8.28
2019-01-05T13:59:02.377Z,8.24
2019-01-05T14:01:37.335Z,8.21
2019-01-05T14:04:09.357Z,8.17
2019-01-05T14:06:59.443Z,8.14
2019-01-05T14:09:31.502Z,8.08
2019-01-05T14:12:12.604Z,8.07
2019-01-05T14:14:47.312Z,8.06
2019-01-05T14:17:28.360Z,8.08
2019-01-05T14:20:16.752Z,8.06
2019-01-05T14:22:51.702Z,8.08
2019-01-05T14:25:40.036Z,8.08
2019-01-05T14:28:18.343Z,8.10
2019-01-05T14:30:50.714Z,8.15
2019-01-05T14:33:41.206Z,8.16
2019-01-05T14:36:13.595Z,8.14
2019-01-05T14:38:51.572Z,8.14
2019-01-05T14:41:23.862Z,8.11
2019-01-05T14:44:08.075Z,8.10
2019-01-05T14:46:40.482Z,8.09
2019-01-05T14:49:18.673Z,8.13
2019-01-05T14:51:50.674Z,8.15
2019-01-05T14:54:28.916Z,8.18
2019-01-05T14:57:00.925Z,8.15
2019-01-05T14:59:50.931Z,8.17
2019-01-05T15:02:39.050Z,8.11
2019-01-05T15:05:29.114Z,8.08
2019-01-05T15:08:17.394Z,8.07
2019-01-05T15:11:05.579Z,8.05
2019-01-05T15:13:53.940Z,8.04
2019-01-05T15:16:42.325Z,8.03
2019-01-05T15:19:20.386Z,7.99
2019-01-05T15:21:58.410Z,7.92
2019-01-05T15:24:47.133Z,7.87
2019-01-05T15:27:34.451Z,7.84
2019-01-05T15:30:23.707Z,7.78
2019-01-05T15:32:55.785Z,7.78
2019-01-05T15:35:43.104Z,7.80
2019-01-05T15:38:15.129Z,7.86
2019-01-05T15:41:03.185Z,7.87
2019-01-05T15:43:50.433Z,7.86
2019-01-05T15:46:42.440Z,7.84
2019-01-05T15:49:28.600Z,7.85
2019-01-05T15:52:06.543Z,7.86
2019-01-05T15:54:54.443Z,7.84
2019-01-05T15:57:42.813Z,7.82
2019-01-05T16:00:30.936Z,7.80
2019-01-05T16:03:03.264Z,7.75
2019-01-05T16:05:53.769Z,7.73
2019-01-05T16:08:38.112Z,7.72
2019-01-05T16:11:15.812Z,7.73
2019-01-05T16:14:04.567Z,7.75
2019-01-05T16:16:53.016Z,7.77
2019-01-05T16:19:25.024Z,7.77
2019-01-05T16:22:00.192Z,7.80
2019-01-05T16:24:35.200Z,7.79
2019-01-05T16:27:13.007Z,7.77
2019-01-05T16:29:47.840Z,7.75
2019-01-05T16:32:20.264Z,7.74
2019-01-05T16:34:52.330Z,7.76
2019-01-05T16:37:27.283Z,7.79
2019-01-05T16:40:02.352Z,7.79
2019-01-05T16:42:46.401Z,7.80
2019-01-05T16:45:21.335Z,7.79
2019-01-05T16:47:56.031Z,7.77
2019-01-05T16:50:34.419Z,7.77
2019-01-05T16:53:22.734Z,7.77
2019-01-05T16:55:54.761Z,7.76
2019-01-05T16:58:26.772Z,7.78
2019-01-05T17:01:10.717Z,7.78
2019-01-05T17:03:42.777Z,7.76
2019-01-05T17:06:33.152Z,7.78
2019-01-05T17:09:24.493Z,7.80
2019-01-05T17:12:05.359Z,7.77
2019-01-05T17:14:43.393Z,7.74
2019-01-05T17:17:21.167Z,7.73
2019-01-05T17:19:59.194Z,7.73
2019-01-05T17:22:34.333Z,7.75
2019-01-05T17:25:19.068Z,7.77
2019-01-05T17:28:07.440Z,7.80
2019-01-05T17:30:39.531Z,7.82
2019-01-05T17:33:28.182Z,7.84
2019-01-05T17:36:00.244Z,7.80
2019-01-05T17:38:32.255Z,7.75
2019-01-05T17:41:06.695Z,7.74
2019-01-05T17:43:50.947Z,7.71
2019-01-05T17:46:31.854Z,7.69
2019-01-05T17:49:20.215Z,7.69
2019-01-05T17:51:58.436Z,7.68
2019-01-05T17:54:36.438Z,7.69
2019-01-05T17:57:20.619Z,7.69
2019-01-05T17:59:58.911Z,7.69
2019-01-05T18:02:39.984Z,7.70
2019-01-05T18:05:14.814Z,7.70
2019-01-05T18:07:49.761Z,7.71
2019-01-05T18:10:38.317Z,7.71
2019-01-05T18:13:22.494Z,7.71
2019-01-05T18:15:54.550Z,7.67
2019-01-05T18:18:26.745Z,7.66
2019-01-05T18:21:04.915Z,7.64
2019-01-05T18:23:53.362Z,7.60
2019-01-05T18:26:37.404Z,7.57
2019-01-05T18:29:25.808Z,7.56
2019-01-05T18:32:13.920Z,7.58
2019-01-05T18:34:48.990Z,7.58
2019-01-05T18:37:27.520Z,7.59
2019-01-05T18:39:59.545Z,7.58
2019-01-05T18:42:40.905Z,7.58
2019-01-05T18:45:15.710Z,7.59
2019-01-05T18:48:05.884Z,7.61
2019-01-05T18:50:54.050Z,7.60
2019-01-05T18:53:42.410Z,7.58
2019-01-05T18:56:32.767Z,7.54
2019-01-05T18:59:07.785Z,7.51
2019-01-05T19:01:45.519Z,7.49
2019-01-05T19:04:20.232Z,7.51
2019-01-05T19:07:00.968Z,7.52
2019-01-05T19:09:33.056Z,7.53
2019-01-05T19:12:13.820Z,7.53
2019-01-05T19:14:48.561Z,7.52
2019-01-05T19:17:35.584Z,7.51
2019-01-05T19:20:25.951Z,7.51
2019-01-05T19:23:10.171Z,7.48
2019-01-05T19:25:54.192Z,7.47
2019-01-05T19:28:26.551Z,7.43
2019-01-05T19:31:01.582Z,7.42
2019-01-05T19:33:33.975Z,7.41
2019-01-05T19:36:18.224Z,7.39
2019-01-05T19:39:06.532Z,7.34
2019-01-05T19:41:54.935Z,7.28
2019-01-05T19:44:32.680Z,7.24
2019-01-05T19:47:04.714Z,7.22
2019-01-05T19:49:54.754Z,7.22
2019-01-05T19:52:33.075Z,7.20
2019-01-05T19:55:07.766Z,7.16
2019-01-05T19:57:55.868Z,7.13
2019-01-05T20:00:44.750Z,7.09
2019-01-05T20:03:43.700Z,7.02
2019-01-05T20:06:30.914Z,6.99
2019-01-05T20:09:08.630Z,6.98
2019-01-05T20:11:46.535Z,6.97
2019-01-05T20:14:34.932Z,6.96
2019-01-05T20:17:10.128Z,6.95
2019-01-05T20:19:59.686Z,6.95
2019-01-05T20:22:34.751Z,6.91
2019-01-05T20:25:10.479Z,6.92
2019-01-05T20:27:42.486Z,6.91
2019-01-05T20:30:30.580Z,6.89
2019-01-05T20:33:14.947Z,6.88
2019-01-05T20:35:49.985Z,6.87
2019-01-05T20:38:24.923Z,6.84
2019-01-05T20:41:13.062Z,6.84
2019-01-05T20:43:45.424Z,6.83
2019-01-05T20:46:17.460Z,6.82
2019-01-05T20:48:52.429Z,6.83
2019-01-05T20:51:36.390Z,6.82
2019-01-05T20:54:09.992Z,6.81
2019-01-05T20:56:58.674Z,6.79
2019-01-05T20:59:40.628Z,6.77
2019-01-05T21:02:29.194Z,6.75
2019-01-05T21:05:01.403Z,6.73
2019-01-05T21:07:39.567Z,6.73
2019-01-05T21:10:21.177Z,6.72
2019-01-05T21:13:09.618Z,6.71
2019-01-05T21:15:53.556Z,6.70
2019-01-05T21:18:41.977Z,6.68
2019-01-05T21:21:14.011Z,6.66
2019-01-05T21:23:52.194Z,6.65
2019-01-05T21:26:27.244Z,6.64
2019-01-05T21:29:17.208Z,6.64
2019-01-05T21:31:52.154Z,6.62
2019-01-05T21:34:24.172Z,6.60
2019-01-05T21:37:05.282Z,6.56
2019-01-05T21:39:37.368Z,6.56
2019-01-05T21:42:18.359Z,6.55
2019-01-05T21:44:53.451Z,6.56
2019-01-05T21:47:41.763Z,6.56
2019-01-05T21:50:19.509Z,6.54
2019-01-05T21:52:57.592Z,6.53
2019-01-05T21:55:29.977Z,6.51
2019-01-05T21:58:18.346Z,6.51
2019-01-05T22:00:53.689Z,6.48
2019-01-05T22:03:25.705Z,6.46
2019-01-05T22:06:14.265Z,6.45
2019-01-05T22:08:58.187Z,6.44
2019-01-05T22:11:30.191Z,6.39
2019-01-05T22:14:18.482Z,6.37
2019-01-05T22:16:56.736Z,6.35
2019-01-05T22:19:45.170Z,6.33
2019-01-05T22:22:17.204Z,6.32
2019-01-05T22:25:06.062Z,6.31
2019-01-05T22:27:54.192Z,6.28
2019-01-05T22:30:26.211Z,6.25
2019-01-05T22:32:58.256Z,6.24
2019-01-05T22:35:36.240Z,6.24
2019-01-05T22:38:09.545Z,6.23
2019-01-05T22:40:57.676Z,6.24
2019-01-05T22:43:46.259Z,6.22
2019-01-05T22:46:18.278Z,6.18
2019-01-05T22:49:02.545Z,6.17
2019-01-05T22:51:52.848Z,6.13
2019-01-05T22:54:30.990Z,6.10
2019-01-05T22:57:11.747Z,6.12
2019-01-05T22:59:43.783Z,6.11
2019-01-05T23:02:31.897Z,6.12
2019-01-05T23:05:22.112Z,6.09
2019-01-05T23:07:57.157Z,6.08
2019-01-05T23:10:35.129Z,6.07
2019-01-05T23:13:13.263Z,6.07
2019-01-05T23:16:00.513Z,6.06
2019-01-05T23:18:38.360Z,6.05
2019-01-05T23:21:10.864Z,6.05
2019-01-05T23:23:59.051Z,6.03
2019-01-05T23:26:31.375Z,6.03
2019-01-05T23:29:14.684Z,6.02
2019-01-05T23:31:46.362Z,6.00
2019-01-05T23:34:18.728Z,5.99
2019-01-05T23:37:05.759Z,5.97
2019-01-05T23:39:53.816Z,5.96
2019-01-05T23:42:37.990Z,5.93
2019-01-05T23:45:24.815Z,5.91
2019-01-05T23:48:02.547Z,5.87
2019-01-05T23:50:37.902Z,5.86
2019-01-05T23:53:15.696Z,5.83
2019-01-05T23:56:02.713Z,5.83
2019-01-05T23:58:43.531Z,5.82
